sensor_id;sensor_type;location;lat;lon;timestamp;pressure;altitude;pressure_sealevel;temperature;humidity
33454;BME280;39400;49.744;7.012;2023-05-19T00:02:07;96584.03;;;8.40;79.51
33454;BME280;39400;49.744;7.012;2023-05-19T00:04:32;96581.97;;;8.37;79.62
33454;BME280;39400;49.744;7.012;2023-05-19T00:06:58;96580.50;;;8.40;78.83
33454;BME280;39400;49.744;7.012;2023-05-19T00:09:24;96583.06;;;8.32;79.73
33454;BME280;39400;49.744;7.012;2023-05-19T00:11:49;96569.31;;;8.29;79.50
33454;BME280;39400;49.744;7.012;2023-05-19T00:14:15;96576.59;;;8.21;79.56
33454;BME280;39400;49.744;7.012;2023-05-19T00:16:41;96573.38;;;8.16;80.25
33454;BME280;39400;49.744;7.012;2023-05-19T00:19:07;96572.47;;;8.31;79.78
33454;BME280;39400;49.744;7.012;2023-05-19T00:21:32;96558.94;;;8.19;79.69
33454;BME280;39400;49.744;7.012;2023-05-19T00:23:57;96561.09;;;8.09;80.37
33454;BME280;39400;49.744;7.012;2023-05-19T00:26:23;96555.81;;;7.97;81.16
33454;BME280;39400;49.744;7.012;2023-05-19T00:28:58;96554.94;;;7.93;81.06
33454;BME280;39400;49.744;7.012;2023-05-19T00:31:23;96553.19;;;8.04;81.23
33454;BME280;39400;49.744;7.012;2023-05-19T00:33:49;96547.88;;;7.92;81.42
33454;BME280;39400;49.744;7.012;2023-05-19T00:36:14;96545.44;;;7.87;81.71
33454;BME280;39400;49.744;7.012;2023-05-19T00:38:39;96552.91;;;8.09;80.83
33454;BME280;39400;49.744;7.012;2023-05-19T00:41:06;96555.69;;;8.13;80.89
33454;BME280;39400;49.744;7.012;2023-05-19T00:43:31;96545.06;;;8.08;80.17
33454;BME280;39400;49.744;7.012;2023-05-19T00:45:57;96551.75;;;8.10;80.80
33454;BME280;39400;49.744;7.012;2023-05-19T00:48:24;96545.59;;;8.17;79.73
33454;BME280;39400;49.744;7.012;2023-05-19T00:50:49;96544.28;;;8.30;79.30
33454;BME280;39400;49.744;7.012;2023-05-19T00:53:17;96549.56;;;8.20;79.95
33454;BME280;39400;49.744;7.012;2023-05-19T00:55:42;96546.13;;;8.03;80.63
33454;BME280;39400;49.744;7.012;2023-05-19T00:58:10;96545.63;;;7.98;80.49
33454;BME280;39400;49.744;7.012;2023-05-19T01:00:36;96548.31;;;7.94;81.61
33454;BME280;39400;49.744;7.012;2023-05-19T01:03:02;96543.81;;;8.05;80.53
33454;BME280;39400;49.744;7.012;2023-05-19T01:05:28;96545.13;;;7.92;81.50
33454;BME280;39400;49.744;7.012;2023-05-19T01:07:54;96537.06;;;7.99;81.15
33454;BME280;39400;49.744;7.012;2023-05-19T01:10:19;96541.38;;;8.00;80.60
33454;BME280;39400;49.744;7.012;2023-05-19T01:12:45;96540.56;;;8.00;80.94
33454;BME280;39400;49.744;7.012;2023-05-19T01:15:11;96541.38;;;8.00;80.48
33454;BME280;39400;49.744;7.012;2023-05-19T01:20:16;96543.22;;;8.16;80.45
33454;BME280;39400;49.744;7.012;2023-05-19T01:31:12;96541.25;;;7.93;80.72
33454;BME280;39400;49.744;7.012;2023-05-19T01:33:40;96540.09;;;7.94;80.20
33454;BME280;39400;49.744;7.012;2023-05-19T01:36:07;96538.34;;;7.86;81.38
33454;BME280;39400;49.744;7.012;2023-05-19T01:38:37;96535.53;;;8.21;79.79
33454;BME280;39400;49.744;7.012;2023-05-19T01:41:05;96538.28;;;8.02;80.43
33454;BME280;39400;49.744;7.012;2023-05-19T01:43:33;96538.59;;;8.20;79.38
33454;BME280;39400;49.744;7.012;2023-05-19T01:46:00;96531.41;;;8.12;79.09
33454;BME280;39400;49.744;7.012;2023-05-19T01:48:27;96545.13;;;8.12;80.19
33454;BME280;39400;49.744;7.012;2023-05-19T01:50:53;96530.44;;;8.00;80.64
33454;BME280;39400;49.744;7.012;2023-05-19T01:53:18;96532.94;;;7.90;80.85
33454;BME280;39400;49.744;7.012;2023-05-19T01:55:49;96534.75;;;7.82;81.15
33454;BME280;39400;49.744;7.012;2023-05-19T01:58:26;96533.97;;;7.81;81.01
33454;BME280;39400;49.744;7.012;2023-05-19T02:06:43;96531.59;;;7.80;81.63
33454;BME280;39400;49.744;7.012;2023-05-19T02:09:24;96534.63;;;7.75;81.55
33454;BME280;39400;49.744;7.012;2023-05-19T02:11:55;96537.22;;;7.68;81.76
33454;BME280;39400;49.744;7.012;2023-05-19T02:14:38;96538.38;;;7.67;81.93
33454;BME280;39400;49.744;7.012;2023-05-19T02:17:04;96542.28;;;7.66;81.74
33454;BME280;39400;49.744;7.012;2023-05-19T02:19:33;96545.72;;;7.62;81.53
33454;BME280;39400;49.744;7.012;2023-05-19T02:21:58;96539.47;;;7.62;82.53
33454;BME280;39400;49.744;7.012;2023-05-19T02:24:24;96544.63;;;7.67;81.64
33454;BME280;39400;49.744;7.012;2023-05-19T02:26:50;96537.78;;;7.57;82.69
33454;BME280;39400;49.744;7.012;2023-05-19T02:29:17;96539.81;;;7.60;82.43
33454;BME280;39400;49.744;7.012;2023-05-19T02:31:43;96544.50;;;7.60;81.96
33454;BME280;39400;49.744;7.012;2023-05-19T02:34:08;96542.03;;;7.55;82.42
33454;BME280;39400;49.744;7.012;2023-05-19T02:36:36;96535.91;;;7.61;81.76
33454;BME280;39400;49.744;7.012;2023-05-19T02:39:02;96542.25;;;7.46;82.53
33454;BME280;39400;49.744;7.012;2023-05-19T02:41:28;96540.22;;;7.43;82.78
33454;BME280;39400;49.744;7.012;2023-05-19T02:43:53;96534.75;;;7.43;82.69
33454;BME280;39400;49.744;7.012;2023-05-19T02:46:19;96537.03;;;7.41;82.23
33454;BME280;39400;49.744;7.012;2023-05-19T02:48:44;96535.75;;;7.54;81.74
33454;BME280;39400;49.744;7.012;2023-05-19T02:51:10;96535.31;;;7.33;82.39
33454;BME280;39400;49.744;7.012;2023-05-19T02:53:35;96539.94;;;7.29;82.99
33454;BME280;39400;49.744;7.012;2023-05-19T02:56:00;96538.19;;;7.21;83.41
33454;BME280;39400;49.744;7.012;2023-05-19T02:58:26;96537.66;;;7.15;83.39
33454;BME280;39400;49.744;7.012;2023-05-19T03:00:51;96537.78;;;7.57;82.01
33454;BME280;39400;49.744;7.012;2023-05-19T03:03:17;96542.06;;;7.20;82.61
33454;BME280;39400;49.744;7.012;2023-05-19T03:05:42;96534.72;;;7.24;82.84
33454;BME280;39400;49.744;7.012;2023-05-19T03:08:08;96527.56;;;7.00;83.50
33454;BME280;39400;49.744;7.012;2023-05-19T03:10:34;96534.38;;;6.90;84.51
33454;BME280;39400;49.744;7.012;2023-05-19T03:12:59;96529.94;;;7.01;84.28
33454;BME280;39400;49.744;7.012;2023-05-19T03:15:24;96532.34;;;6.87;84.04
33454;BME280;39400;49.744;7.012;2023-05-19T03:17:50;96536.16;;;6.66;85.29
33454;BME280;39400;49.744;7.012;2023-05-19T03:20:15;96528.03;;;6.54;86.05
33454;BME280;39400;49.744;7.012;2023-05-19T03:22:40;96530.88;;;6.42;86.10
33454;BME280;39400;49.744;7.012;2023-05-19T03:25:06;96526.63;;;6.29;86.20
33454;BME280;39400;49.744;7.012;2023-05-19T03:27:31;96522.91;;;6.05;87.05
33454;BME280;39400;49.744;7.012;2023-05-19T03:29:57;96533.00;;;5.89;87.54
33454;BME280;39400;49.744;7.012;2023-05-19T03:32:22;96524.81;;;5.89;87.71
33454;BME280;39400;49.744;7.012;2023-05-19T03:34:48;96525.72;;;5.81;88.62
33454;BME280;39400;49.744;7.012;2023-05-19T03:37:13;96523.59;;;5.74;89.09
33454;BME280;39400;49.744;7.012;2023-05-19T03:39:39;96531.69;;;5.70;89.65
33454;BME280;39400;49.744;7.012;2023-05-19T03:42:05;96528.75;;;5.63;89.73
33454;BME280;39400;49.744;7.012;2023-05-19T03:44:30;96532.44;;;5.55;90.44
33454;BME280;39400;49.744;7.012;2023-05-19T03:46:58;96528.81;;;5.51;92.16
33454;BME280;39400;49.744;7.012;2023-05-19T03:49:58;96529.75;;;5.43;91.69
33454;BME280;39400;49.744;7.012;2023-05-19T03:53:02;96533.03;;;5.48;91.89
33454;BME280;39400;49.744;7.012;2023-05-19T03:55:31;96536.41;;;5.58;93.13
33454;BME280;39400;49.744;7.012;2023-05-19T03:57:56;96532.75;;;5.66;91.86
33454;BME280;39400;49.744;7.012;2023-05-19T04:00:22;96537.94;;;5.71;92.80
33454;BME280;39400;49.744;7.012;2023-05-19T04:02:49;96531.50;;;5.63;92.33
33454;BME280;39400;49.744;7.012;2023-05-19T04:05:14;96538.78;;;5.59;92.88
33454;BME280;39400;49.744;7.012;2023-05-19T04:07:40;96535.50;;;5.54;92.75
33454;BME280;39400;49.744;7.012;2023-05-19T04:10:05;96545.13;;;5.63;93.21
33454;BME280;39400;49.744;7.012;2023-05-19T04:12:31;96542.31;;;5.60;93.60
33454;BME280;39400;49.744;7.012;2023-05-19T04:14:56;96544.63;;;5.73;93.66
33454;BME280;39400;49.744;7.012;2023-05-19T04:17:23;96545.53;;;5.78;93.63
33454;BME280;39400;49.744;7.012;2023-05-19T04:19:48;96549.59;;;5.84;93.89
33454;BME280;39400;49.744;7.012;2023-05-19T04:22:14;96541.97;;;5.89;94.11
33454;BME280;39400;49.744;7.012;2023-05-19T04:24:40;96545.47;;;5.90;94.17
33454;BME280;39400;49.744;7.012;2023-05-19T04:27:05;96544.81;;;5.93;94.32
33454;BME280;39400;49.744;7.012;2023-05-19T04:29:31;96545.03;;;5.88;95.14
33454;BME280;39400;49.744;7.012;2023-05-19T04:31:57;96540.06;;;6.06;94.63
33454;BME280;39400;49.744;7.012;2023-05-19T04:34:22;96540.34;;;6.01;94.95
33454;BME280;39400;49.744;7.012;2023-05-19T04:36:48;96540.44;;;6.04;94.94
33454;BME280;39400;49.744;7.012;2023-05-19T04:39:13;96536.13;;;6.03;95.47
33454;BME280;39400;49.744;7.012;2023-05-19T04:41:41;96532.44;;;6.11;94.54
33454;BME280;39400;49.744;7.012;2023-05-19T04:44:07;96536.69;;;6.25;94.09
33454;BME280;39400;49.744;7.012;2023-05-19T04:46:32;96534.56;;;6.34;93.89
33454;BME280;39400;49.744;7.012;2023-05-19T04:48:58;96535.72;;;6.49;93.47
33454;BME280;39400;49.744;7.012;2023-05-19T04:51:23;96542.31;;;6.63;92.82
33454;BME280;39400;49.744;7.012;2023-05-19T04:53:48;96537.19;;;6.78;91.17
33454;BME280;39400;49.744;7.012;2023-05-19T04:56:14;96538.03;;;7.13;89.77
33454;BME280;39400;49.744;7.012;2023-05-19T04:58:40;96534.59;;;7.36;88.70
33454;BME280;39400;49.744;7.012;2023-05-19T05:01:06;96538.72;;;7.46;88.20
33454;BME280;39400;49.744;7.012;2023-05-19T05:03:31;96543.56;;;7.52;87.91
33454;BME280;39400;49.744;7.012;2023-05-19T05:05:57;96537.66;;;7.70;87.25
33454;BME280;39400;49.744;7.012;2023-05-19T05:08:22;96538.22;;;7.79;87.96
33454;BME280;39400;49.744;7.012;2023-05-19T05:10:49;96536.38;;;7.83;87.71
33454;BME280;39400;49.744;7.012;2023-05-19T05:13:15;96545.72;;;7.82;88.43
33454;BME280;39400;49.744;7.012;2023-05-19T05:15:41;96534.91;;;7.89;88.88
33454;BME280;39400;49.744;7.012;2023-05-19T05:18:07;96546.69;;;8.13;88.47
33454;BME280;39400;49.744;7.012;2023-05-19T05:20:33;96543.94;;;8.13;89.11
33454;BME280;39400;49.744;7.012;2023-05-19T05:22:59;96537.66;;;8.31;88.37
33454;BME280;39400;49.744;7.012;2023-05-19T05:25:25;96536.44;;;8.29;88.48
33454;BME280;39400;49.744;7.012;2023-05-19T05:27:51;96542.53;;;8.65;87.23
33454;BME280;39400;49.744;7.012;2023-05-19T05:30:17;96540.84;;;9.06;84.42
33454;BME280;39400;49.744;7.012;2023-05-19T05:32:42;96531.50;;;9.11;84.67
33454;BME280;39400;49.744;7.012;2023-05-19T05:35:17;96540.81;;;9.02;83.96
33454;BME280;39400;49.744;7.012;2023-05-19T05:37:42;96536.34;;;9.21;83.82
33454;BME280;39400;49.744;7.012;2023-05-19T05:40:08;96545.22;;;9.37;83.64
33454;BME280;39400;49.744;7.012;2023-05-19T05:42:34;96544.91;;;9.42;82.53
33454;BME280;39400;49.744;7.012;2023-05-19T05:44:59;96537.69;;;9.61;82.19
33454;BME280;39400;49.744;7.012;2023-05-19T05:47:25;96538.34;;;9.50;82.20
33454;BME280;39400;49.744;7.012;2023-05-19T05:49:51;96537.47;;;9.43;82.40
33454;BME280;39400;49.744;7.012;2023-05-19T05:52:17;96535.81;;;9.38;82.34
33454;BME280;39400;49.744;7.012;2023-05-19T05:54:46;96541.19;;;9.58;82.07
33454;BME280;39400;49.744;7.012;2023-05-19T05:57:14;96533.78;;;9.62;82.15
33454;BME280;39400;49.744;7.012;2023-05-19T05:59:41;96529.72;;;9.52;84.20
33454;BME280;39400;49.744;7.012;2023-05-19T06:02:07;96528.16;;;9.51;84.65
33454;BME280;39400;49.744;7.012;2023-05-19T06:04:34;96525.31;;;9.44;84.49
33454;BME280;39400;49.744;7.012;2023-05-19T06:06:59;96525.78;;;9.49;84.38
33454;BME280;39400;49.744;7.012;2023-05-19T06:09:24;96525.28;;;9.70;84.64
33454;BME280;39400;49.744;7.012;2023-05-19T06:11:50;96536.38;;;9.81;83.77
33454;BME280;39400;49.744;7.012;2023-05-19T06:14:16;96526.22;;;9.85;82.94
33454;BME280;39400;49.744;7.012;2023-05-19T06:17:10;96530.25;;;9.95;80.86
33454;BME280;39400;49.744;7.012;2023-05-19T06:19:35;96525.59;;;9.99;81.53
33454;BME280;39400;49.744;7.012;2023-05-19T06:22:01;96522.56;;;10.11;82.13
33454;BME280;39400;49.744;7.012;2023-05-19T06:24:28;96521.84;;;10.18;81.18
33454;BME280;39400;49.744;7.012;2023-05-19T06:26:53;96514.13;;;10.27;81.88
33454;BME280;39400;49.744;7.012;2023-05-19T06:29:18;96527.13;;;10.30;81.41
33454;BME280;39400;49.744;7.012;2023-05-19T06:31:46;96515.78;;;10.35;80.84
33454;BME280;39400;49.744;7.012;2023-05-19T06:34:14;96519.72;;;10.34;79.83
33454;BME280;39400;49.744;7.012;2023-05-19T06:36:40;96524.44;;;10.37;80.21
33454;BME280;39400;49.744;7.012;2023-05-19T06:39:05;96519.44;;;10.46;80.30
33454;BME280;39400;49.744;7.012;2023-05-19T06:41:31;96517.53;;;10.54;80.88
33454;BME280;39400;49.744;7.012;2023-05-19T06:43:56;96527.88;;;10.68;78.70
33454;BME280;39400;49.744;7.012;2023-05-19T06:46:22;96522.38;;;10.68;80.41
33454;BME280;39400;49.744;7.012;2023-05-19T06:48:47;96526.03;;;10.83;79.80
33454;BME280;39400;49.744;7.012;2023-05-19T06:51:14;96524.78;;;10.77;78.01
33454;BME280;39400;49.744;7.012;2023-05-19T06:53:40;96527.94;;;10.75;78.73
33454;BME280;39400;49.744;7.012;2023-05-19T06:56:07;96528.75;;;10.79;78.69
33454;BME280;39400;49.744;7.012;2023-05-19T06:58:34;96526.81;;;10.83;77.67
33454;BME280;39400;49.744;7.012;2023-05-19T07:01:03;96520.19;;;10.88;77.55
33454;BME280;39400;49.744;7.012;2023-05-19T07:03:37;96520.16;;;10.84;78.33
33454;BME280;39400;49.744;7.012;2023-05-19T07:06:02;96519.50;;;11.02;78.22
33454;BME280;39400;49.744;7.012;2023-05-19T07:08:27;96525.84;;;11.13;77.30
33454;BME280;39400;49.744;7.012;2023-05-19T07:10:53;96517.19;;;11.14;77.79
33454;BME280;39400;49.744;7.012;2023-05-19T07:13:18;96528.28;;;11.25;77.62
33454;BME280;39400;49.744;7.012;2023-05-19T07:15:44;96519.63;;;11.19;77.53
33454;BME280;39400;49.744;7.012;2023-05-19T07:18:10;96515.69;;;11.24;76.45
33454;BME280;39400;49.744;7.012;2023-05-19T07:20:35;96530.66;;;11.23;76.84
33454;BME280;39400;49.744;7.012;2023-05-19T07:23:00;96525.13;;;11.23;76.40
33454;BME280;39400;49.744;7.012;2023-05-19T07:25:25;96523.59;;;11.26;76.98
33454;BME280;39400;49.744;7.012;2023-05-19T07:27:51;96538.56;;;11.32;76.65
33454;BME280;39400;49.744;7.012;2023-05-19T07:30:17;96529.91;;;11.33;77.28
33454;BME280;39400;49.744;7.012;2023-05-19T07:32:42;96536.66;;;11.43;77.39
33454;BME280;39400;49.744;7.012;2023-05-19T07:35:07;96532.41;;;11.60;76.96
33454;BME280;39400;49.744;7.012;2023-05-19T07:37:33;96531.84;;;12.02;75.30
33454;BME280;39400;49.744;7.012;2023-05-19T07:39:58;96522.84;;;12.23;73.07
33454;BME280;39400;49.744;7.012;2023-05-19T07:42:24;96521.69;;;12.31;73.97
33454;BME280;39400;49.744;7.012;2023-05-19T07:44:49;96517.38;;;12.66;71.21
33454;BME280;39400;49.744;7.012;2023-05-19T07:47:14;96521.72;;;12.74;70.16
33454;BME280;39400;49.744;7.012;2023-05-19T07:49:39;96519.34;;;12.55;71.96
33454;BME280;39400;49.744;7.012;2023-05-19T07:52:05;96520.91;;;12.38;72.65
33454;BME280;39400;49.744;7.012;2023-05-19T07:54:30;96523.25;;;12.36;73.03
33454;BME280;39400;49.744;7.012;2023-05-19T07:56:56;96515.41;;;12.56;73.09
33454;BME280;39400;49.744;7.012;2023-05-19T07:59:21;96511.47;;;12.64;72.39
33454;BME280;39400;49.744;7.012;2023-05-19T08:01:46;96512.28;;;12.72;72.46
33454;BME280;39400;49.744;7.012;2023-05-19T08:04:12;96515.41;;;12.77;72.03
33454;BME280;39400;49.744;7.012;2023-05-19T08:06:37;96510.69;;;12.96;70.96
33454;BME280;39400;49.744;7.012;2023-05-19T08:09:02;96511.47;;;13.11;71.12
33454;BME280;39400;49.744;7.012;2023-05-19T08:11:28;96510.69;;;12.99;70.53
33454;BME280;39400;49.744;7.012;2023-05-19T08:13:53;96510.28;;;13.08;72.29
33454;BME280;39400;49.744;7.012;2023-05-19T08:16:18;96518.53;;;13.37;70.24
33454;BME280;39400;49.744;7.012;2023-05-19T08:18:44;96507.50;;;13.37;70.47
33454;BME280;39400;49.744;7.012;2023-05-19T08:21:09;96514.56;;;13.52;70.19
33454;BME280;39400;49.744;7.012;2023-05-19T08:23:34;96516.47;;;13.73;66.46
33454;BME280;39400;49.744;7.012;2023-05-19T08:26:00;96506.53;;;13.90;66.74
33454;BME280;39400;49.744;7.012;2023-05-19T08:28:25;96498.75;;;14.40;64.57
33454;BME280;39400;49.744;7.012;2023-05-19T08:30:50;96495.44;;;13.97;67.91
33454;BME280;39400;49.744;7.012;2023-05-19T08:33:16;96496.22;;;14.01;65.92
33454;BME280;39400;49.744;7.012;2023-05-19T08:35:41;96485.94;;;14.01;68.49
33454;BME280;39400;49.744;7.012;2023-05-19T08:38:07;96492.59;;;14.11;65.69
33454;BME280;39400;49.744;7.012;2023-05-19T08:40:33;96487.09;;;14.08;66.07
33454;BME280;39400;49.744;7.012;2023-05-19T08:43:01;96489.88;;;14.04;66.91
33454;BME280;39400;49.744;7.012;2023-05-19T08:45:27;96494.94;;;14.16;68.01
33454;BME280;39400;49.744;7.012;2023-05-19T08:47:52;96482.59;;;14.32;68.32
33454;BME280;39400;49.744;7.012;2023-05-19T08:50:23;96491.00;;;14.17;67.02
33454;BME280;39400;49.744;7.012;2023-05-19T08:52:55;96492.53;;;14.25;67.11
33454;BME280;39400;49.744;7.012;2023-05-19T08:55:49;96489.69;;;14.36;68.65
33454;BME280;39400;49.744;7.012;2023-05-19T08:58:20;96487.25;;;14.45;67.62
33454;BME280;39400;49.744;7.012;2023-05-19T09:00:46;96486.47;;;14.52;68.25
33454;BME280;39400;49.744;7.012;2023-05-19T09:03:12;96493.56;;;14.53;67.21
33454;BME280;39400;49.744;7.012;2023-05-19T09:05:38;96487.59;;;14.55;68.22
33454;BME280;39400;49.744;7.012;2023-05-19T09:08:03;96477.81;;;14.39;66.08
33454;BME280;39400;49.744;7.012;2023-05-19T09:10:29;96482.03;;;14.62;69.34
33454;BME280;39400;49.744;7.012;2023-05-19T09:12:54;96484.06;;;14.54;65.98
33454;BME280;39400;49.744;7.012;2023-05-19T09:15:21;96478.53;;;14.54;66.81
33454;BME280;39400;49.744;7.012;2023-05-19T09:17:49;96483.94;;;14.68;67.11
33454;BME280;39400;49.744;7.012;2023-05-19T09:20:16;96481.53;;;14.74;65.27
33454;BME280;39400;49.744;7.012;2023-05-19T09:22:42;96486.34;;;14.66;65.94
33454;BME280;39400;49.744;7.012;2023-05-19T09:25:17;96480.81;;;14.66;65.86
33454;BME280;39400;49.744;7.012;2023-05-19T09:27:42;96470.03;;;14.79;66.82
33454;BME280;39400;49.744;7.012;2023-05-19T09:30:08;96470.31;;;14.92;67.14
33454;BME280;39400;49.744;7.012;2023-05-19T09:32:34;96464.47;;;15.20;63.47
33454;BME280;39400;49.744;7.012;2023-05-19T09:35:01;96472.72;;;14.90;64.03
33454;BME280;39400;49.744;7.012;2023-05-19T09:37:27;96473.91;;;14.85;65.36
33454;BME280;39400;49.744;7.012;2023-05-19T09:39:52;96474.34;;;14.84;64.75
33454;BME280;39400;49.744;7.012;2023-05-19T09:42:25;96473.47;;;14.94;64.13
33454;BME280;39400;49.744;7.012;2023-05-19T09:44:58;96465.44;;;15.03;62.38
33454;BME280;39400;49.744;7.012;2023-05-19T09:47:23;96468.66;;;14.98;64.22
33454;BME280;39400;49.744;7.012;2023-05-19T09:49:49;96456.66;;;15.12;63.11
33454;BME280;39400;49.744;7.012;2023-05-19T09:52:14;96466.13;;;15.18;62.90
33454;BME280;39400;49.744;7.012;2023-05-19T09:54:39;96474.00;;;15.19;63.73
33454;BME280;39400;49.744;7.012;2023-05-19T09:57:05;96472.31;;;15.29;62.20
33454;BME280;39400;49.744;7.012;2023-05-19T09:59:30;96474.59;;;15.41;61.59
33454;BME280;39400;49.744;7.012;2023-05-19T10:01:57;96482.50;;;15.39;62.22
33454;BME280;39400;49.744;7.012;2023-05-19T10:04:27;96485.78;;;15.27;60.98
33454;BME280;39400;49.744;7.012;2023-05-19T10:06:54;96465.81;;;15.46;60.89
33454;BME280;39400;49.744;7.012;2023-05-19T10:09:23;96457.06;;;15.48;61.61
33454;BME280;39400;49.744;7.012;2023-05-19T10:11:53;96452.94;;;15.63;61.61
33454;BME280;39400;49.744;7.012;2023-05-19T10:14:22;96455.66;;;15.71;61.31
33454;BME280;39400;49.744;7.012;2023-05-19T10:16:49;96452.69;;;15.85;60.08
33454;BME280;39400;49.744;7.012;2023-05-19T10:19:15;96450.25;;;15.90;61.23
33454;BME280;39400;49.744;7.012;2023-05-19T10:21:40;96446.03;;;16.09;63.02
33454;BME280;39400;49.744;7.012;2023-05-19T10:24:06;96450.69;;;16.16;61.60
33454;BME280;39400;49.744;7.012;2023-05-19T10:26:32;96439.75;;;16.32;61.38
33454;BME280;39400;49.744;7.012;2023-05-19T10:28:58;96436.56;;;16.34;58.75
33454;BME280;39400;49.744;7.012;2023-05-19T10:31:24;96434.38;;;16.45;61.50
33454;BME280;39400;49.744;7.012;2023-05-19T10:34:11;96434.38;;;16.49;60.07
33454;BME280;39400;49.744;7.012;2023-05-19T10:36:45;96431.16;;;16.50;60.16
33454;BME280;39400;49.744;7.012;2023-05-19T10:39:25;96430.13;;;16.64;62.80
33454;BME280;39400;49.744;7.012;2023-05-19T10:42:07;96411.69;;;17.21;54.29
33454;BME280;39400;49.744;7.012;2023-05-19T10:47:33;96426.44;;;17.18;59.75
33454;BME280;39400;49.744;7.012;2023-05-19T10:50:03;96425.81;;;17.30;59.56
33454;BME280;39400;49.744;7.012;2023-05-19T10:52:28;96417.91;;;17.48;59.26
33454;BME280;39400;49.744;7.012;2023-05-19T10:54:54;96416.34;;;17.67;59.87
33454;BME280;39400;49.744;7.012;2023-05-19T10:57:24;96426.97;;;17.92;58.88
33454;BME280;39400;49.744;7.012;2023-05-19T10:59:50;96421.41;;;17.92;60.06
33454;BME280;39400;49.744;7.012;2023-05-19T11:02:38;96411.50;;;17.71;58.13
33454;BME280;39400;49.744;7.012;2023-05-19T11:05:14;96418.69;;;17.69;58.85
33454;BME280;39400;49.744;7.012;2023-05-19T11:07:41;96419.69;;;17.98;59.49
33454;BME280;39400;49.744;7.012;2023-05-19T11:10:06;96420.03;;;18.00;54.39
33454;BME280;39400;49.744;7.012;2023-05-19T11:12:40;96420.47;;;17.99;57.33
33454;BME280;39400;49.744;7.012;2023-05-19T11:15:06;96417.81;;;18.12;56.57
33454;BME280;39400;49.744;7.012;2023-05-19T11:17:34;96417.78;;;17.95;54.00
33454;BME280;39400;49.744;7.012;2023-05-19T11:19:59;96412.16;;;17.79;56.30
33454;BME280;39400;49.744;7.012;2023-05-19T11:22:26;96417.84;;;17.92;59.35
33454;BME280;39400;49.744;7.012;2023-05-19T11:24:54;96414.75;;;18.06;57.26
33454;BME280;39400;49.744;7.012;2023-05-19T11:27:23;96417.00;;;18.11;57.59
33454;BME280;39400;49.744;7.012;2023-05-19T11:29:49;96413.94;;;18.25;58.70
33454;BME280;39400;49.744;7.012;2023-05-19T11:32:15;96415.59;;;18.39;58.13
33454;BME280;39400;49.744;7.012;2023-05-19T11:34:43;96411.59;;;18.40;58.17
33454;BME280;39400;49.744;7.012;2023-05-19T11:37:08;96410.63;;;18.47;56.63
33454;BME280;39400;49.744;7.012;2023-05-19T11:39:34;96406.88;;;19.03;51.78
33454;BME280;39400;49.744;7.012;2023-05-19T11:41:59;96403.94;;;18.61;52.53
33454;BME280;39400;49.744;7.012;2023-05-19T11:44:25;96401.19;;;18.08;55.19
33454;BME280;39400;49.744;7.012;2023-05-19T11:46:50;96393.38;;;18.36;55.37
33454;BME280;39400;49.744;7.012;2023-05-19T11:49:15;96392.59;;;18.35;54.92
33454;BME280;39400;49.744;7.012;2023-05-19T11:51:44;96382.31;;;18.32;54.72
33454;BME280;39400;49.744;7.012;2023-05-19T11:54:11;96394.28;;;18.33;57.06
33454;BME280;39400;49.744;7.012;2023-05-19T11:56:40;96386.84;;;18.10;56.83
33454;BME280;39400;49.744;7.012;2023-05-19T11:59:09;96380.97;;;17.88;54.35
33454;BME280;39400;49.744;7.012;2023-05-19T12:01:35;96378.78;;;17.79;54.14
33454;BME280;39400;49.744;7.012;2023-05-19T12:04:01;96375.13;;;17.62;53.44
33454;BME280;39400;49.744;7.012;2023-05-19T12:06:27;96374.09;;;17.36;55.47
33454;BME280;39400;49.744;7.012;2023-05-19T12:08:54;96378.66;;;17.46;55.44
33454;BME280;39400;49.744;7.012;2023-05-19T12:11:19;96368.38;;;17.43;54.96
33454;BME280;39400;49.744;7.012;2023-05-19T12:13:46;96372.94;;;17.53;55.06
33454;BME280;39400;49.744;7.012;2023-05-19T12:16:11;96374.91;;;17.73;54.29
33454;BME280;39400;49.744;7.012;2023-05-19T12:18:37;96383.13;;;17.40;57.17
33454;BME280;39400;49.744;7.012;2023-05-19T12:21:03;96370.19;;;17.70;56.03
33454;BME280;39400;49.744;7.012;2023-05-19T12:23:29;96382.28;;;17.23;58.72
33454;BME280;39400;49.744;7.012;2023-05-19T12:25:58;96386.47;;;17.11;58.65
33454;BME280;39400;49.744;7.012;2023-05-19T12:28:24;96382.69;;;17.62;55.78
33454;BME280;39400;49.744;7.012;2023-05-19T12:30:50;96366.69;;;17.49;55.09
33454;BME280;39400;49.744;7.012;2023-05-19T12:33:15;96370.38;;;17.43;55.76
33454;BME280;39400;49.744;7.012;2023-05-19T12:35:41;96364.63;;;17.70;55.41
33454;BME280;39400;49.744;7.012;2023-05-19T12:38:06;96366.69;;;17.49;60.68
33454;BME280;39400;49.744;7.012;2023-05-19T12:40:35;96373.81;;;17.50;59.97
33454;BME280;39400;49.744;7.012;2023-05-19T12:43:00;96369.06;;;17.87;59.83
33454;BME280;39400;49.744;7.012;2023-05-19T12:45:26;96374.25;;;18.38;56.82
33454;BME280;39400;49.744;7.012;2023-05-19T12:47:51;96368.44;;;19.10;54.98
33454;BME280;39400;49.744;7.012;2023-05-19T12:50:16;96373.53;;;19.28;53.39
33454;BME280;39400;49.744;7.012;2023-05-19T12:52:47;96367.13;;;19.44;57.64
33454;BME280;39400;49.744;7.012;2023-05-19T12:55:13;96352.81;;;19.71;51.96
33454;BME280;39400;49.744;7.012;2023-05-19T12:57:40;96364.81;;;18.97;54.45
33454;BME280;39400;49.744;7.012;2023-05-19T13:00:11;96362.84;;;18.48;56.77
33454;BME280;39400;49.744;7.012;2023-05-19T13:02:54;96360.78;;;18.36;55.99
33454;BME280;39400;49.744;7.012;2023-05-19T13:05:20;96361.53;;;18.69;55.99
33454;BME280;39400;49.744;7.012;2023-05-19T13:10:20;96366.34;;;18.36;56.92
33454;BME280;39400;49.744;7.012;2023-05-19T13:12:45;96359.59;;;18.66;54.02
33454;BME280;39400;49.744;7.012;2023-05-19T13:15:10;96368.78;;;18.34;53.76
33454;BME280;39400;49.744;7.012;2023-05-19T13:17:36;96364.25;;;18.24;55.03
33454;BME280;39400;49.744;7.012;2023-05-19T13:20:02;96349.06;;;17.92;57.61
33454;BME280;39400;49.744;7.012;2023-05-19T13:22:27;96345.59;;;18.70;54.02
33454;BME280;39400;49.744;7.012;2023-05-19T13:24:52;96357.47;;;18.41;54.34
33454;BME280;39400;49.744;7.012;2023-05-19T13:27:18;96361.16;;;17.86;55.23